createdAt,value
2024-05-09T00:01:20.438Z,24.90
2024-05-09T00:04:13.061Z,24.60
2024-05-09T00:06:59.025Z,22.90
2024-05-09T00:09:52.006Z,19.80
2024-05-09T00:12:44.452Z,19.40
2024-05-09T00:15:37.326Z,19.60
2024-05-09T00:18:24.238Z,20.80
2024-05-09T00:21:17.367Z,15.60
2024-05-09T00:24:10.146Z,19.40
2024-05-09T00:27:02.651Z,19.10
2024-05-09T00:29:55.541Z,16.30
2024-05-09T00:32:38.560Z,14.90
2024-05-09T00:35:31.253Z,16.50
2024-05-09T00:38:23.923Z,14.90
2024-05-09T00:41:18.955Z,16.50
2024-05-09T00:44:56.889Z,14.40
2024-05-09T00:47:50.528Z,13.00
2024-05-09T00:50:45.752Z,14.80
2024-05-09T00:53:38.661Z,13.70
2024-05-09T00:56:31.642Z,14.80
2024-05-09T00:59:28.687Z,13.80
2024-05-09T01:02:22.350Z,15.30
2024-05-09T01:05:15.231Z,11.90
2024-05-09T01:08:09.028Z,13.80
2024-05-09T01:11:01.786Z,12.30
2024-05-09T01:13:54.127Z,13.60
2024-05-09T01:16:38.891Z,13.30
2024-05-09T01:19:22.383Z,14.10
2024-05-09T01:22:07.917Z,12.60
2024-05-09T01:24:59.910Z,11.80
2024-05-09T01:28:16.317Z,11.00
2024-05-09T01:31:08.636Z,12.10
2024-05-09T01:34:00.593Z,10.80
2024-05-09T01:36:43.192Z,12.70
2024-05-09T01:39:35.252Z,11.30
2024-05-09T01:44:05.760Z,12.80
2024-05-09T01:52:13.252Z,13.00
2024-05-09T01:55:06.323Z,11.30
2024-05-09T01:57:58.570Z,11.70
2024-05-09T02:00:43.727Z,12.20
2024-05-09T02:03:27.077Z,12.30
2024-05-09T02:06:19.157Z,13.70
2024-05-09T02:09:00.984Z,10.40
2024-05-09T02:11:53.189Z,12.00
2024-05-09T02:14:38.695Z,11.90
2024-05-09T02:17:31.069Z,12.20
2024-05-09T02:20:30.552Z,12.90
2024-05-09T02:23:27.792Z,13.50
2024-05-09T02:26:20.071Z,12.60
2024-05-09T02:29:04.651Z,12.90
2024-05-09T02:31:47.910Z,14.50
2024-05-09T02:34:40.107Z,13.90
2024-05-09T02:37:32.151Z,13.90
2024-05-09T02:40:33.208Z,12.10
2024-05-09T02:43:27.843Z,14.40
2024-05-09T02:46:19.915Z,15.60
2024-05-09T02:49:05.897Z,16.00
2024-05-09T02:51:58.135Z,14.50
2024-05-09T02:54:50.163Z,14.70
2024-05-09T02:57:42.191Z,17.20
2024-05-09T03:00:39.033Z,15.30
2024-05-09T03:03:23.807Z,15.90
2024-05-09T03:06:09.193Z,15.70
2024-05-09T03:09:01.627Z,14.50
2024-05-09T03:11:54.360Z,15.60
2024-05-09T03:14:35.552Z,14.00
2024-05-09T03:17:27.523Z,14.90
2024-05-09T03:20:20.409Z,15.00
2024-05-09T03:23:16.246Z,15.60
2024-05-09T03:26:12.697Z,15.00
2024-05-09T03:28:54.575Z,13.30
2024-05-09T03:31:46.817Z,16.60
2024-05-09T03:34:41.239Z,14.60
2024-05-09T03:37:33.239Z,15.10
2024-05-09T03:40:23.679Z,15.80
2024-05-09T03:43:10.904Z,14.20
2024-05-09T03:46:02.958Z,15.00
2024-05-09T03:48:55.179Z,14.00
2024-05-09T03:51:27.039Z,12.60
2024-05-09T03:54:03.584Z,13.70
2024-05-09T03:56:55.555Z,15.00
2024-05-09T03:59:41.376Z,14.60
2024-05-09T04:02:33.489Z,15.60
2024-05-09T04:05:26.171Z,14.10
2024-05-09T04:08:18.345Z,12.20
2024-05-09T04:11:10.529Z,13.20
2024-05-09T04:13:55.682Z,12.10
2024-05-09T04:16:49.882Z,12.30
2024-05-09T04:19:34.376Z,13.00
2024-05-09T04:22:26.615Z,13.20
2024-05-09T04:25:17.626Z,11.80
2024-05-09T04:28:09.954Z,11.80
2024-05-09T04:30:54.720Z,11.50
2024-05-09T04:33:46.823Z,11.00
2024-05-09T04:36:31.394Z,12.10
2024-05-09T04:39:23.372Z,9.60
2024-05-09T04:42:08.412Z,12.90
2024-05-09T04:44:56.431Z,11.20
2024-05-09T04:47:48.451Z,12.10
2024-05-09T04:50:40.689Z,10.70
2024-05-09T04:53:32.976Z,11.90
2024-05-09T04:56:24.193Z,11.10
2024-05-09T04:59:16.241Z,11.20
2024-05-09T05:02:08.572Z,10.90
2024-05-09T05:05:00.973Z,10.30
2024-05-09T05:07:53.156Z,10.00
2024-05-09T05:10:38.036Z,11.20
2024-05-09T05:13:36.669Z,9.10
2024-05-09T05:16:55.093Z,10.40
2024-05-09T05:19:47.340Z,8.60
2024-05-09T05:22:42.941Z,9.60
2024-05-09T05:25:35.157Z,8.20
2024-05-09T05:28:27.064Z,8.50
2024-05-09T05:31:19.377Z,8.60
2024-05-09T05:34:11.707Z,8.50
2024-05-09T05:36:56.580Z,7.40
2024-05-09T05:39:48.556Z,8.90
2024-05-09T05:42:40.660Z,53.50
2024-05-09T05:45:56.587Z,9.80
2024-05-09T05:48:48.826Z,58.10
2024-05-09T05:51:41.052Z,66.00
2024-05-09T05:54:31.778Z,10.10
2024-05-09T05:57:23.892Z,9.90
2024-05-09T06:00:26.040Z,8.60
2024-05-09T06:03:22.565Z,7.80
2024-05-09T06:06:15.886Z,9.30
2024-05-09T06:09:07.836Z,9.30
2024-05-09T06:17:14.224Z,7.50
2024-05-09T06:20:11.041Z,8.30
2024-05-09T06:23:08.346Z,8.20
2024-05-09T06:26:00.613Z,8.00
2024-05-09T06:28:51.302Z,9.30
2024-05-09T06:31:43.735Z,7.80
2024-05-09T06:34:37.008Z,7.70
2024-05-09T06:37:12.385Z,9.40
2024-05-09T06:40:07.282Z,8.00
2024-05-09T06:42:59.003Z,6.80
2024-05-09T06:45:53.025Z,9.10
2024-05-09T06:48:48.099Z,8.50
2024-05-09T06:51:33.164Z,9.10
2024-05-09T06:54:25.077Z,7.70
2024-05-09T06:57:08.415Z,7.50
2024-05-09T07:00:00.669Z,6.50
2024-05-09T07:02:52.937Z,7.70
2024-05-09T07:05:46.254Z,7.40
2024-05-09T07:08:39.057Z,8.00
2024-05-09T07:11:20.298Z,5.70
2024-05-09T07:14:12.454Z,8.90
2024-05-09T07:16:57.352Z,11.20
2024-05-09T07:19:49.640Z,10.40
2024-05-09T07:22:41.879Z,8.40
2024-05-09T07:25:22.909Z,5.80
2024-05-09T07:28:10.787Z,5.70
2024-05-09T07:32:37.837Z,6.10
2024-05-09T07:35:22.890Z,7.40
2024-05-09T07:38:15.250Z,7.30
2024-05-09T07:40:52.756Z,8.70
2024-05-09T07:43:35.958Z,6.50
2024-05-09T07:50:55.874Z,7.60
2024-05-09T07:53:30.006Z,6.40
2024-05-09T07:55:28.153Z,6.20
2024-05-09T07:58:20.173Z,7.50
2024-05-09T08:02:46.839Z,7.10
2024-05-09T08:05:39.070Z,6.20
2024-05-09T08:08:31.295Z,6.80
2024-05-09T08:11:08.614Z,7.40
2024-05-09T08:14:48.725Z,5.90
2024-05-09T08:28:09.243Z,5.70
2024-05-09T08:31:05.162Z,8.20
2024-05-09T08:36:43.760Z,7.20
2024-05-09T08:39:36.783Z,5.60
2024-05-09T08:42:35.838Z,8.80
2024-05-09T08:45:29.585Z,6.70
2024-05-09T08:48:26.830Z,5.80
2024-05-09T08:51:19.161Z,15.30
2024-05-09T08:54:03.956Z,6.00
2024-05-09T08:56:56.255Z,7.50
2024-05-09T08:59:50.669Z,4.10
2024-05-09T09:02:44.382Z,7.00
2024-05-09T09:05:21.350Z,5.60
2024-05-09T09:08:08.430Z,8.10
2024-05-09T09:10:55.542Z,7.30
2024-05-09T09:13:46.040Z,6.50
2024-05-09T09:16:38.168Z,6.70
2024-05-09T09:19:30.327Z,7.30
2024-05-09T09:22:22.600Z,7.20
2024-05-09T09:25:14.525Z,7.70
2024-05-09T09:28:07.727Z,5.70
2024-05-09T09:31:05.380Z,5.80
2024-05-09T09:33:57.946Z,5.90
2024-05-09T09:36:51.400Z,7.30
2024-05-09T09:39:48.826Z,4.80
2024-05-09T09:42:43.584Z,5.00
2024-05-09T09:45:36.922Z,4.80
2024-05-09T09:48:29.050Z,5.80
2024-05-09T09:51:22.535Z,4.80
2024-05-09T09:54:14.726Z,6.70
2024-05-09T09:57:08.055Z,4.90
2024-05-09T10:00:01.543Z,19.50
2024-05-09T10:02:53.554Z,7.10
2024-05-09T10:05:47.366Z,5.50
2024-05-09T10:08:32.878Z,5.10
2024-05-09T10:11:25.438Z,6.50
2024-05-09T10:14:22.803Z,7.00
2024-05-09T10:17:04.638Z,5.10
2024-05-09T10:19:45.637Z,7.40
2024-05-09T10:22:30.835Z,7.20
2024-05-09T10:25:23.745Z,5.70
2024-05-09T10:28:04.920Z,6.70
2024-05-09T10:30:37.459Z,7.90
2024-05-09T10:33:22.275Z,4.70
2024-05-09T10:36:13.560Z,5.90
2024-05-09T10:38:45.605Z,4.50
2024-05-09T10:41:40.363Z,4.60
2024-05-09T10:44:24.736Z,5.60
2024-05-09T10:47:20.390Z,4.90
2024-05-09T10:50:22.211Z,4.60
2024-05-09T10:53:11.501Z,6.10
2024-05-09T10:56:03.932Z,3.40
2024-05-09T10:58:51.695Z,4.70
2024-05-09T11:04:17.770Z,4.90
2024-05-09T11:07:11.364Z,5.30
2024-05-09T11:10:04.901Z,19.00
2024-05-09T11:12:48.487Z,7.00
2024-05-09T11:15:43.904Z,6.50
2024-05-09T11:18:33.457Z,5.10
2024-05-09T11:21:28.442Z,5.70
2024-05-09T11:24:20.712Z,5.90
2024-05-09T11:27:13.533Z,5.10
2024-05-09T11:30:09.205Z,6.30
2024-05-09T11:32:56.035Z,5.90
2024-05-09T11:35:48.527Z,4.50
2024-05-09T11:38:33.492Z,4.30
2024-05-09T11:41:27.060Z,4.30
2024-05-09T11:44:08.730Z,4.00
2024-05-09T11:46:53.297Z,4.40
2024-05-09T11:49:45.904Z,5.20
2024-05-09T11:52:37.960Z,5.80
2024-05-09T11:57:07.708Z,4.40
2024-05-09T11:59:59.724Z,5.40
2024-05-09T12:02:52.574Z,6.30
2024-05-09T12:05:38.611Z,5.20
2024-05-09T12:08:22.254Z,4.10
2024-05-09T12:11:04.464Z,4.00
2024-05-09T12:13:56.564Z,4.50
2024-05-09T12:16:48.812Z,5.30
2024-05-09T12:19:40.958Z,3.70
2024-05-09T12:22:33.048Z,4.20
2024-05-09T12:25:25.158Z,6.70
2024-05-09T12:28:10.022Z,4.50
2024-05-09T12:30:42.316Z,5.10
2024-05-09T12:33:14.635Z,5.00
2024-05-09T12:35:49.171Z,5.70
2024-05-09T12:38:25.052Z,4.30
2024-05-09T12:41:17.153Z,3.60
2024-05-09T12:43:49.570Z,4.60
2024-05-09T12:46:24.317Z,6.20
2024-05-09T12:49:06.870Z,5.70
2024-05-09T12:51:42.128Z,5.20
2024-05-09T12:54:14.101Z,3.80
2024-05-09T12:56:46.008Z,4.50
2024-05-09T12:59:38.342Z,4.90
2024-05-09T13:02:10.499Z,4.60
2024-05-09T13:04:47.379Z,4.00
2024-05-09T13:07:29.530Z,5.00
2024-05-09T13:10:29.055Z,5.20
2024-05-09T13:13:04.473Z,4.50
2024-05-09T13:15:37.496Z,5.70
2024-05-09T13:18:12.495Z,5.00
2024-05-09T13:21:04.667Z,4.00
2024-05-09T13:23:39.747Z,6.40
2024-05-09T13:26:14.678Z,4.20
2024-05-09T13:28:48.792Z,5.50
2024-05-09T13:31:20.817Z,4.40
2024-05-09T13:33:55.412Z,4.40
2024-05-09T13:36:38.443Z,3.80
2024-05-09T13:39:10.902Z,4.30
2024-05-09T13:41:45.732Z,5.40
2024-05-09T13:44:17.644Z,6.60
2024-05-09T13:46:52.528Z,4.50
2024-05-09T13:49:44.675Z,3.70
2024-05-09T13:52:29.410Z,3.80
2024-05-09T13:55:01.568Z,5.70
2024-05-09T13:57:33.735Z,4.90
2024-05-09T14:00:38.042Z,5.10
2024-05-09T14:03:19.218Z,4.60
2024-05-09T14:06:03.474Z,5.30
2024-05-09T14:08:35.544Z,5.10
2024-05-09T14:11:07.673Z,5.10
2024-05-09T14:13:43.244Z,4.00
2024-05-09T14:16:26.357Z,4.30
2024-05-09T14:19:09.113Z,5.10
2024-05-09T14:21:41.072Z,3.00
2024-05-09T14:24:33.398Z,3.80
2024-05-09T14:27:15.664Z,4.70
2024-05-09T14:30:15.056Z,4.00
2024-05-09T14:33:16.220Z,3.80
2024-05-09T14:36:09.279Z,4.40
2024-05-09T14:38:52.279Z,4.70
2024-05-09T14:41:44.290Z,5.00
2024-05-09T14:44:36.269Z,4.20
2024-05-09T14:47:28.326Z,4.50
2024-05-09T14:50:27.875Z,4.70
2024-05-09T14:53:19.386Z,3.20
2024-05-09T14:56:11.804Z,3.80
2024-05-09T14:59:03.868Z,4.50
2024-05-09T15:01:56.120Z,4.80
2024-05-09T15:04:48.424Z,6.00
2024-05-09T15:07:31.706Z,3.70
2024-05-09T15:10:31.517Z,5.30
2024-05-09T15:13:20.288Z,2.80
2024-05-09T15:16:12.854Z,5.70
2024-05-09T15:18:59.522Z,4.90
2024-05-09T15:21:44.572Z,3.70
2024-05-09T15:24:35.813Z,5.10
2024-05-09T15:27:20.929Z,3.70
2024-05-09T15:30:10.407Z,4.10
2024-05-09T15:33:04.642Z,4.20
2024-05-09T15:35:47.532Z,3.70
2024-05-09T15:38:40.182Z,4.90
2024-05-09T15:41:32.084Z,4.40
2024-05-09T15:44:16.997Z,4.80
2024-05-09T15:46:58.927Z,5.00
2024-05-09T15:49:38.463Z,4.10
2024-05-09T15:52:30.664Z,6.30
2024-05-09T15:55:18.742Z,7.10
2024-05-09T15:58:02.954Z,3.60
2024-05-09T16:00:55.589Z,3.50
2024-05-09T16:03:47.927Z,5.60
2024-05-09T16:06:40.591Z,4.40
2024-05-09T16:09:32.724Z,3.60
2024-05-09T16:12:23.483Z,7.10
2024-05-09T16:15:09.136Z,5.80
2024-05-09T16:18:01.385Z,4.30
2024-05-09T16:24:23.978Z,4.70
2024-05-09T16:27:16.084Z,3.30
2024-05-09T16:30:04.066Z,6.90
2024-05-09T16:32:45.225Z,23.90
2024-05-09T16:35:28.603Z,22.60
2024-05-09T16:38:20.993Z,13.20
2024-05-09T16:41:14.846Z,7.40
2024-05-09T16:44:03.964Z,6.60
2024-05-09T16:46:46.971Z,6.20
2024-05-09T16:49:39.115Z,6.60
2024-05-09T16:52:31.218Z,8.30
2024-05-09T16:55:23.220Z,4.80
2024-05-09T16:58:15.623Z,6.20
2024-05-09T17:01:07.757Z,6.50
2024-05-09T17:04:00.141Z,4.50
2024-05-09T17:06:50.924Z,6.00
2024-05-09T17:09:42.926Z,5.30
2024-05-09T17:12:35.111Z,7.60
2024-05-09T17:15:27.287Z,7.10
2024-05-09T17:18:19.663Z,6.10
2024-05-09T17:21:11.636Z,6.80
2024-05-09T17:24:03.802Z,8.70
2024-05-09T17:26:55.760Z,5.50
2024-05-09T17:29:48.160Z,8.00
2024-05-09T17:32:40.781Z,8.90
2024-05-09T17:35:33.139Z,6.50
2024-05-09T17:38:26.074Z,5.90
2024-05-09T17:41:11.811Z,5.70
2024-05-09T17:44:06.278Z,7.20
2024-05-09T17:46:50.811Z,7.00
2024-05-09T17:49:43.039Z,6.10
2024-05-09T17:52:35.188Z,8.50
2024-05-09T17:55:12.773Z,7.10
2024-05-09T17:58:05.543Z,7.00
2024-05-09T18:00:57.907Z,7.50
2024-05-09T18:03:50.252Z,8.50
2024-05-09T18:06:34.997Z,7.50
2024-05-09T18:09:17.086Z,7.80
2024-05-09T18:12:10.168Z,8.40
2024-05-09T18:15:02.677Z,7.40
2024-05-09T18:17:55.129Z,6.00
2024-05-09T18:20:47.291Z,6.80
2024-05-09T18:23:39.542Z,7.60
2024-05-09T18:26:31.565Z,8.80
2024-05-09T18:29:23.704Z,6.60
2024-05-09T18:32:15.598Z,7.30
2024-05-09T18:35:08.883Z,7.10
2024-05-09T18:37:55.441Z,8.30
2024-05-09T18:40:49.257Z,7.40
2024-05-09T18:43:45.237Z,8.70
2024-05-09T18:46:40.624Z,6.80
2024-05-09T18:49:25.470Z,7.00
2024-05-09T18:52:11.436Z,6.20
2024-05-09T18:55:04.386Z,7.30
2024-05-09T18:57:56.599Z,8.50
2024-05-09T19:00:40.232Z,7.40
2024-05-09T19:03:35.118Z,6.40
2024-05-09T19:06:27.269Z,8.60
2024-05-09T19:09:19.430Z,7.40
2024-05-09T19:12:11.546Z,8.80
2024-05-09T19:15:03.727Z,6.40
2024-05-09T19:17:55.837Z,8.20
2024-05-09T19:20:48.054Z,9.20
2024-05-09T19:23:38.084Z,7.60
2024-05-09T19:26:33.005Z,7.80
2024-05-09T19:29:16.755Z,7.80
2024-05-09T19:32:01.890Z,9.10
2024-05-09T19:34:46.701Z,9.50
2024-05-09T19:37:37.219Z,8.70
2024-05-09T19:40:29.003Z,9.70
2024-05-09T19:44:59.170Z,9.00
2024-05-09T19:47:35.548Z,9.90
2024-05-09T19:50:36.853Z,12.00
2024-05-09T19:53:34.361Z,8.30
2024-05-09T19:56:26.549Z,10.10
2024-05-09T19:59:08.684Z,7.50
2024-05-09T20:02:00.978Z,9.00
2024-05-09T20:04:53.136Z,8.20
2024-05-09T20:07:38.018Z,7.90
2024-05-09T20:10:33.025Z,9.90
2024-05-09T20:13:17.079Z,9.50
2024-05-09T20:16:10.350Z,8.40
2024-05-09T20:19:02.551Z,8.90
2024-05-09T20:21:54.743Z,8.10
2024-05-09T20:30:01.125Z,9.60
2024-05-09T20:32:53.155Z,10.00
2024-05-09T20:35:43.661Z,10.00
2024-05-09T20:38:35.906Z,9.30
2024-05-09T20:41:27.944Z,8.30
2024-05-09T20:44:19.837Z,8.70
2024-05-09T20:47:12.081Z,8.40
2024-05-09T20:50:09.163Z,9.50
2024-05-09T20:52:59.023Z,9.50
2024-05-09T20:55:35.400Z,8.50
2024-05-09T20:58:17.723Z,9.20
2024-05-09T21:06:31.613Z,9.20
2024-05-09T21:09:25.007Z,11.20
2024-05-09T21:12:15.580Z,8.80
2024-05-09T21:14:58.976Z,10.70
2024-05-09T21:17:48.771Z,9.40
2024-05-09T21:20:39.099Z,8.60
2024-05-09T21:23:53.732Z,12.00
2024-05-09T21:26:36.651Z,12.70
2024-05-09T21:29:26.309Z,10.00
2024-05-09T21:32:15.789Z,11.20
2024-05-09T21:35:06.292Z,9.90
2024-05-09T21:37:55.600Z,12.90
2024-05-09T21:40:37.459Z,10.60
2024-05-09T21:43:28.640Z,11.00
2024-05-09T21:46:17.912Z,10.40
2024-05-09T21:49:07.333Z,11.20
2024-05-09T21:51:49.978Z,10.10
2024-05-09T21:54:29.213Z,13.10
2024-05-09T21:57:18.498Z,12.00
2024-05-09T21:59:57.508Z,12.70
2024-05-09T22:02:32.391Z,10.90
2024-05-09T22:05:21.666Z,11.30
2024-05-09T22:13:27.086Z,12.10
2024-05-09T22:16:19.881Z,12.80
2024-05-09T22:19:03.823Z,12.10
2024-05-09T22:21:56.685Z,12.20
2024-05-09T22:24:48.425Z,12.40
2024-05-09T22:27:42.054Z,13.10
2024-05-09T22:30:38.477Z,12.00
2024-05-09T22:33:32.977Z,12.90
2024-05-09T22:36:25.902Z,12.50
2024-05-09T22:39:18.374Z,14.30
2024-05-09T22:42:11.062Z,16.60
2024-05-09T22:45:04.153Z,21.70
2024-05-09T22:47:56.943Z,26.00
2024-05-09T22:50:49.195Z,23.40
2024-05-09T22:53:42.098Z,27.30
2024-05-09T22:56:35.586Z,28.10
2024-05-09T22:59:26.994Z,28.00
2024-05-09T23:02:12.937Z,24.80
2024-05-09T23:05:05.156Z,25.00
2024-05-09T23:07:58.513Z,27.10
2024-05-09T23:10:51.266Z,22.00
2024-05-09T23:13:44.261Z,20.70
2024-05-09T23:17:01.475Z,20.40
2024-05-09T23:24:41.031Z,20.20
2024-05-09T23:27:33.186Z,25.30
2024-05-09T23:33:20.381Z,19.30
2024-05-09T23:36:12.529Z,17.90
2024-05-09T23:39:04.741Z,19.10
2024-05-09T23:41:56.796Z,18.60
2024-05-09T23:44:48.811Z,18.30
2024-05-09T23:47:41.184Z,18.60
2024-05-09T23:50:33.633Z,18.60
2024-05-09T23:53:28.669Z,18.50
2024-05-09T23:56:21.445Z,17.60
2024-05-09T23:59:13.246Z,19.00
